Terminal Aerodrome Forecast
Issued by NWS

Home | Current Version | Previous Version | Text Only | Print | Product List | Glossary On
Versions: 1 2 3 4 5 6 7 8 9 10 11 12 13 14 15 16
000
FTUS41 KCAR 161100
TAFHUL
TAF
KHUL 161120Z 1612/1712 20005KT P6SM -SHRA OVC035
     FM161400 21007KT 5SM -SHRA OVC028
     FM162000 22007KT P6SM BKN035
     FM162300 VRB03KT P6SM SCT040 BKN110
     FM170300 VRB02KT 3SM BR BKN200
     FM171030 24004KT P6SM SCT120=

USA.gov is the U.S. government's official web portal to all federal, state and local government web resources and services.